Decoded Metar for MKJS (MONTEGO BAY in JAMAICA) (IATA:MBJ) | Meteo·Mobile Aviation Weather
aviador You're here:

MKJS Decoded Metar

MONTEGO BAY in JAMAICA
Report Time2019-02-22 20:00:00
UTC Time2019-02-22 20:21:34
Flight Rules vfr VFR
Wind080° at 25 kt
W.Decomp.*RWY 07: 24.0 kt HW 6.9 kt RCW
W.Rank080° ranks 2
Current wind is above 080° avg. (10.9)
Visibility9999 m
Phenomena:N/A
Clouds:Few 022 Hf
Expected CloudBase > 4,800 ft AGL from Temp-Dew spread
CeilingNone
Temp30°C (ISA +15)
Dew Point18°C (49% RH)
Heat Index30.9°C
AAT23.8°C
QNH1014 hPa
Density Alt1,962 ft
Elevation3 ft
Report Wrong Elevation
Raw Report
METAR MKJS 222000Z 08025KT 9999 FEW022 30/18 Q1014=

Extra information for MKJS:More info

Metar Taf Metar & Taf Last 4 Metars F.Rules Stats Wind Profile Meteogram Temp Stats Airport Information Weather charts Add Link Nearby VenuesMetar ALERT Operation Metar Decoded Social comments